createdAt,value
2019-04-16T00:00:01.513Z,25.20
2019-04-16T00:02:53.907Z,25.92
2019-04-16T00:05:58.437Z,19.10
2019-04-16T00:08:36.876Z,22.80
2019-04-16T00:11:22.727Z,19.35
2019-04-16T00:14:04.615Z,22.80
2019-04-16T00:16:44.624Z,23.18
2019-04-16T00:19:20.180Z,17.67
2019-04-16T00:22:11.556Z,15.68
2019-04-16T00:24:52.312Z,15.15
2019-04-16T00:27:29.360Z,19.73
2019-04-16T00:30:06.291Z,21.48
2019-04-16T00:32:42.763Z,19.05
2019-04-16T00:35:19.499Z,18.10
2019-04-16T00:38:01.705Z,20.90
2019-04-16T00:40:38.084Z,18.90
2019-04-16T00:43:14.225Z,15.15
2019-04-16T00:45:50.686Z,19.95
2019-04-16T00:48:27.295Z,20.55
2019-04-16T00:51:03.372Z,22.22
2019-04-16T00:53:39.756Z,16.45
2019-04-16T00:56:16.884Z,16.93
2019-04-16T00:58:53.367Z,23.00
2019-04-16T01:01:31.053Z,18.10
2019-04-16T01:04:08.506Z,15.68
2019-04-16T01:06:45.116Z,15.20
2019-04-16T01:09:39.792Z,18.35
2019-04-16T01:12:16.235Z,16.95
2019-04-16T01:14:58.726Z,17.62
2019-04-16T01:17:36.711Z,16.50
2019-04-16T01:20:13.325Z,17.23
2019-04-16T01:22:50.069Z,21.12
2019-04-16T01:25:26.558Z,16.60
2019-04-16T01:28:05.325Z,19.87
2019-04-16T01:30:55.301Z,18.45
2019-04-16T01:33:49.557Z,14.78
2019-04-16T01:36:59.200Z,14.65
2019-04-16T01:39:36.167Z,18.30
2019-04-16T01:42:13.321Z,18.67
2019-04-16T01:44:50.192Z,18.20
2019-04-16T01:47:26.815Z,18.73
2019-04-16T01:50:03.277Z,18.15
2019-04-16T01:52:39.888Z,16.25
2019-04-16T01:55:19.239Z,18.30
2019-04-16T01:57:56.099Z,17.82
2019-04-16T02:00:33.092Z,15.63
2019-04-16T02:03:09.302Z,19.32
2019-04-16T02:05:45.534Z,25.57
2019-04-16T02:08:21.927Z,22.93
2019-04-16T02:10:58.499Z,19.27
2019-04-16T02:13:35.031Z,19.57
2019-04-16T02:16:11.810Z,19.40
2019-04-16T02:18:48.498Z,16.10
2019-04-16T02:21:24.660Z,18.20
2019-04-16T02:24:01.302Z,20.85
2019-04-16T02:26:37.853Z,24.05
2019-04-16T02:29:14.548Z,17.35
2019-04-16T02:31:51.575Z,26.62
2019-04-16T02:34:28.735Z,17.48
2019-04-16T02:37:08.353Z,25.65
2019-04-16T02:39:49.222Z,22.67
2019-04-16T02:42:23.080Z,16.55
2019-04-16T02:44:59.498Z,20.30
2019-04-16T02:47:40.260Z,20.68
2019-04-16T02:50:18.111Z,18.40
2019-04-16T02:53:28.059Z,19.42
2019-04-16T02:56:35.780Z,19.55
2019-04-16T02:59:16.686Z,23.27
2019-04-16T03:02:22.663Z,20.10
2019-04-16T03:05:13.221Z,16.77
2019-04-16T03:07:49.854Z,17.17
2019-04-16T03:10:25.860Z,19.65
2019-04-16T03:13:01.539Z,16.85
2019-04-16T03:16:06.330Z,19.37
2019-04-16T03:18:48.191Z,18.15
2019-04-16T03:21:27.570Z,16.57
2019-04-16T03:24:08.051Z,16.48
2019-04-16T03:26:44.220Z,19.37
2019-04-16T03:29:20.450Z,16.48
2019-04-16T03:31:59.407Z,16.07
2019-04-16T03:34:35.714Z,19.70
2019-04-16T03:37:12.974Z,16.15
2019-04-16T03:39:49.932Z,19.02
2019-04-16T03:42:27.372Z,22.10
2019-04-16T03:45:09.185Z,16.52
2019-04-16T03:47:44.619Z,17.00
2019-04-16T03:50:21.147Z,16.85
2019-04-16T03:52:57.871Z,21.93
2019-04-16T03:55:35.687Z,15.18
2019-04-16T03:58:12.380Z,15.88
2019-04-16T04:00:49.228Z,14.98
2019-04-16T04:03:26.814Z,15.05
2019-04-16T04:06:06.422Z,17.17
2019-04-16T04:08:41.513Z,17.45
2019-04-16T04:11:18.155Z,15.95
2019-04-16T04:13:53.934Z,14.07
2019-04-16T04:16:33.410Z,13.68
2019-04-16T04:19:13.913Z,15.75
2019-04-16T04:21:46.627Z,14.63
2019-04-16T04:24:23.158Z,15.48
2019-04-16T04:26:59.323Z,14.60
2019-04-16T04:29:35.862Z,17.90
2019-04-16T04:32:12.293Z,15.50
2019-04-16T04:34:49.466Z,15.10
2019-04-16T04:37:30.991Z,15.48
2019-04-16T04:40:03.586Z,19.90
2019-04-16T04:42:39.707Z,15.03
2019-04-16T04:45:15.817Z,20.65
2019-04-16T04:47:52.490Z,16.42
2019-04-16T04:50:32.437Z,17.27
2019-04-16T04:53:08.400Z,14.85
2019-04-16T04:55:45.244Z,14.18
2019-04-16T04:58:21.748Z,15.35
2019-04-16T05:00:58.003Z,22.17
2019-04-16T05:03:44.465Z,15.23
2019-04-16T05:06:27.842Z,14.55
2019-04-16T05:09:03.404Z,14.83
2019-04-16T05:11:40.066Z,13.75
2019-04-16T05:14:16.573Z,17.85
2019-04-16T05:16:53.100Z,14.15
2019-04-16T05:19:29.746Z,17.32
2019-04-16T05:22:06.417Z,14.13
2019-04-16T05:24:42.916Z,14.00
2019-04-16T05:27:19.439Z,15.32
2019-04-16T05:29:55.829Z,14.75
2019-04-16T05:32:34.032Z,13.55
2019-04-16T05:35:10.414Z,14.70
2019-04-16T05:37:48.515Z,17.82
2019-04-16T05:40:27.599Z,15.78
2019-04-16T05:43:02.442Z,15.75
2019-04-16T05:45:38.561Z,14.30
2019-04-16T05:48:15.251Z,13.00
2019-04-16T05:50:51.659Z,13.60
2019-04-16T05:53:28.616Z,13.90
2019-04-16T05:56:29.295Z,14.65
2019-04-16T05:59:05.879Z,13.08
2019-04-16T06:01:52.322Z,14.13
2019-04-16T06:04:28.758Z,12.95
2019-04-16T06:07:07.586Z,13.00
2019-04-16T06:09:45.318Z,13.18
2019-04-16T06:12:22.800Z,13.62
2019-04-16T06:15:09.915Z,12.95
2019-04-16T06:18:09.977Z,13.28
2019-04-16T06:20:53.673Z,14.13
2019-04-16T06:23:50.993Z,13.80
2019-04-16T06:26:36.521Z,16.65
2019-04-16T06:29:31.064Z,13.35
2019-04-16T06:32:30.343Z,12.73
2019-04-16T06:35:23.581Z,14.15
2019-04-16T06:38:14.275Z,16.52
2019-04-16T06:41:14.564Z,14.05
2019-04-16T06:43:58.291Z,12.98
2019-04-16T06:46:55.873Z,13.65
2019-04-16T06:49:51.198Z,13.40
2019-04-16T06:52:49.836Z,13.08
2019-04-16T06:55:42.804Z,12.88
2019-04-16T06:58:27.306Z,12.82
2019-04-16T07:01:17.887Z,13.43
2019-04-16T07:04:01.303Z,15.60
2019-04-16T07:07:07.844Z,13.25
2019-04-16T07:10:05.876Z,12.65
2019-04-16T07:12:42.489Z,13.13
2019-04-16T07:15:22.572Z,12.28
2019-04-16T07:17:56.330Z,12.37
2019-04-16T07:20:32.342Z,13.22
2019-04-16T07:23:08.945Z,13.72
2019-04-16T07:25:45.963Z,13.13
2019-04-16T07:28:38.963Z,12.58
2019-04-16T07:31:32.897Z,12.45
2019-04-16T07:34:29.708Z,13.78
2019-04-16T07:37:20.139Z,12.07
2019-04-16T07:40:26.768Z,12.90
2019-04-16T07:43:25.047Z,12.60
2019-04-16T07:46:19.745Z,13.65
2019-04-16T07:49:14.955Z,12.95
2019-04-16T07:52:15.843Z,13.45
2019-04-16T07:55:13.259Z,14.18
2019-04-16T07:57:50.078Z,12.50
2019-04-16T08:00:26.622Z,15.68
2019-04-16T08:03:03.229Z,13.75
2019-04-16T08:05:41.248Z,14.40
2019-04-16T08:08:18.688Z,14.53
2019-04-16T08:10:54.955Z,13.40
2019-04-16T08:13:34.374Z,15.72
2019-04-16T08:16:11.380Z,12.35
2019-04-16T08:18:52.600Z,13.50
2019-04-16T08:21:28.877Z,12.95
2019-04-16T08:24:09.227Z,13.30
2019-04-16T08:26:45.519Z,13.03
2019-04-16T08:29:21.975Z,13.20
2019-04-16T08:31:58.406Z,13.80
2019-04-16T08:34:34.788Z,13.50
2019-04-16T08:37:12.621Z,13.10
2019-04-16T08:39:48.974Z,13.38
2019-04-16T08:42:29.063Z,13.13
2019-04-16T08:45:07.315Z,14.58
2019-04-16T08:47:44.623Z,12.60
2019-04-16T08:50:18.080Z,13.72
2019-04-16T08:52:55.929Z,13.95
2019-04-16T08:55:32.850Z,13.30
2019-04-16T08:58:12.865Z,13.72
2019-04-16T09:00:50.420Z,14.78
2019-04-16T09:03:26.897Z,13.70
2019-04-16T09:06:04.939Z,13.90
2019-04-16T09:09:13.395Z,13.88
2019-04-16T09:11:50.987Z,13.58
2019-04-16T09:14:27.839Z,14.30
2019-04-16T09:17:13.990Z,13.88
2019-04-16T09:20:09.465Z,13.83
2019-04-16T09:22:49.232Z,14.68
2019-04-16T09:25:42.455Z,15.08
2019-04-16T09:28:30.993Z,15.40
2019-04-16T09:31:09.565Z,14.55
2019-04-16T09:33:57.186Z,15.43
2019-04-16T09:36:51.951Z,15.70
2019-04-16T09:39:38.535Z,17.60
2019-04-16T09:42:15.185Z,15.25
2019-04-16T09:44:51.682Z,14.68
2019-04-16T09:47:29.235Z,18.67
2019-04-16T09:50:09.646Z,15.28
2019-04-16T09:52:44.194Z,15.70
2019-04-16T09:55:29.503Z,17.75
2019-04-16T09:58:13.820Z,17.95
2019-04-16T10:00:57.378Z,14.43
2019-04-16T10:03:41.948Z,15.75
2019-04-16T10:06:18.061Z,15.30
2019-04-16T10:08:56.546Z,14.78
2019-04-16T10:11:32.812Z,14.35
2019-04-16T10:14:09.381Z,17.15
2019-04-16T10:16:45.492Z,12.65
2019-04-16T10:19:24.600Z,15.40
2019-04-16T10:22:01.885Z,12.98
2019-04-16T10:24:54.401Z,14.65
2019-04-16T10:27:34.513Z,14.05
2019-04-16T10:30:29.926Z,15.60
2019-04-16T10:33:04.643Z,15.78
2019-04-16T10:35:41.068Z,15.25
2019-04-16T10:38:44.670Z,13.72
2019-04-16T10:41:26.966Z,19.95
2019-04-16T10:44:11.528Z,13.30
2019-04-16T10:47:12.317Z,33.60
2019-04-16T10:50:08.837Z,13.58
2019-04-16T10:53:01.345Z,14.33
2019-04-16T10:55:52.409Z,15.90
2019-04-16T10:58:59.301Z,14.78
2019-04-16T11:01:39.792Z,15.03
2019-04-16T11:04:24.100Z,19.02
2019-04-16T11:07:04.787Z,14.90
2019-04-16T11:09:41.064Z,14.60
2019-04-16T11:12:19.754Z,14.68
2019-04-16T11:14:56.007Z,17.20
2019-04-16T11:17:32.129Z,13.98
2019-04-16T11:20:08.610Z,15.13
2019-04-16T11:22:44.707Z,17.12
2019-04-16T11:25:21.438Z,15.55
2019-04-16T11:27:58.100Z,17.23
2019-04-16T11:30:48.606Z,16.45
2019-04-16T11:33:23.530Z,19.00
2019-04-16T11:36:00.317Z,20.85
2019-04-16T11:38:35.954Z,21.15
2019-04-16T11:41:12.472Z,23.67
2019-04-16T11:43:49.536Z,21.62
2019-04-16T11:46:25.400Z,27.05
2019-04-16T11:49:01.318Z,28.52
2019-04-16T11:51:37.617Z,20.48
2019-04-16T11:54:14.034Z,17.57
2019-04-16T11:56:50.894Z,17.17
2019-04-16T11:59:27.819Z,21.52
2019-04-16T12:02:22.535Z,19.00
2019-04-16T12:05:16.073Z,21.40
2019-04-16T12:08:10.403Z,18.62
2019-04-16T12:11:02.963Z,21.15
2019-04-16T12:13:57.659Z,22.98
2019-04-16T12:16:50.221Z,20.43
2019-04-16T12:19:44.909Z,19.92
2019-04-16T12:22:45.815Z,21.42
2019-04-16T12:25:55.540Z,23.32
2019-04-16T12:28:48.749Z,44.67
2019-04-16T12:31:42.209Z,38.33
2019-04-16T12:34:31.439Z,30.15
2019-04-16T12:37:24.743Z,30.57
2019-04-16T12:40:28.560Z,26.37
2019-04-16T12:43:14.696Z,30.15
2019-04-16T12:46:04.124Z,26.27
2019-04-16T12:49:01.712Z,30.15
2019-04-16T12:52:02.010Z,26.57
2019-04-16T12:54:58.514Z,31.52
2019-04-16T12:57:47.270Z,26.00
2019-04-16T13:00:34.230Z,26.62
2019-04-16T13:03:37.461Z,30.65
2019-04-16T13:06:38.164Z,33.38
2019-04-16T13:09:49.473Z,38.63
2019-04-16T13:12:53.127Z,42.62
2019-04-16T13:15:44.223Z,32.28
2019-04-16T13:18:32.970Z,29.92
2019-04-16T13:21:35.914Z,28.40
2019-04-16T13:24:22.274Z,28.05
2019-04-16T13:27:20.454Z,22.02
2019-04-16T13:30:01.250Z,19.75
2019-04-16T13:32:34.353Z,22.95
2019-04-16T13:35:11.552Z,21.00
2019-04-16T13:37:48.123Z,27.02
2019-04-16T13:40:25.946Z,20.72
2019-04-16T13:43:05.566Z,20.32
2019-04-16T13:45:41.785Z,19.07
2019-04-16T13:48:30.648Z,20.95
2019-04-16T13:51:14.888Z,20.20
2019-04-16T13:54:10.491Z,21.15
2019-04-16T13:57:08.537Z,22.75
2019-04-16T14:00:05.522Z,22.77
2019-04-16T14:02:59.962Z,22.75
2019-04-16T14:05:38.366Z,18.70
2019-04-16T14:08:15.834Z,22.77
2019-04-16T14:10:52.226Z,23.42
2019-04-16T14:13:29.037Z,25.55
2019-04-16T14:16:11.448Z,24.02
2019-04-16T14:18:45.690Z,18.98
2019-04-16T14:21:22.639Z,19.57
2019-04-16T14:24:00.586Z,25.25
2019-04-16T14:26:36.729Z,30.20
2019-04-16T14:29:12.890Z,37.73
2019-04-16T14:31:49.755Z,30.95
2019-04-16T14:34:38.898Z,282.15
2019-04-16T14:37:16.198Z,56.45
2019-04-16T14:40:19.063Z,25.12
2019-04-16T14:42:58.222Z,22.50
2019-04-16T14:45:56.859Z,25.85
2019-04-16T14:48:20.229Z,22.37
2019-04-16T14:50:57.371Z,25.35
2019-04-16T14:53:46.798Z,23.77
2019-04-16T14:56:30.651Z,22.85
2019-04-16T14:59:33.283Z,23.67
2019-04-16T15:02:29.489Z,23.77
2019-04-16T15:05:15.585Z,21.82
2019-04-16T15:08:14.540Z,23.90
2019-04-16T15:11:09.690Z,19.60
2019-04-16T15:14:03.057Z,22.73
2019-04-16T15:16:46.363Z,20.30
2019-04-16T15:19:39.138Z,19.48
2019-04-16T15:22:25.293Z,22.77
2019-04-16T15:25:19.625Z,21.62
2019-04-16T15:28:17.394Z,28.05
2019-04-16T15:31:01.562Z,25.60
2019-04-16T15:33:45.543Z,22.32
2019-04-16T15:36:25.275Z,26.05
2019-04-16T15:39:06.878Z,22.58
2019-04-16T15:42:00.371Z,27.60
2019-04-16T15:44:47.517Z,20.48
2019-04-16T15:47:42.925Z,24.15
2019-04-16T15:50:51.853Z,20.65
2019-04-16T15:53:47.762Z,19.60
2019-04-16T15:56:44.086Z,20.17
2019-04-16T15:59:27.936Z,24.55
2019-04-16T16:02:41.183Z,28.95
2019-04-16T16:05:34.761Z,20.97
2019-04-16T16:08:26.886Z,29.77
2019-04-16T16:11:25.607Z,27.50
2019-04-16T16:14:01.932Z,24.77
2019-04-16T16:16:42.043Z,25.08
2019-04-16T16:19:17.597Z,23.67
2019-04-16T16:21:54.317Z,26.87
2019-04-16T16:24:31.160Z,29.75
2019-04-16T16:27:08.530Z,28.02
2019-04-16T16:29:44.930Z,23.45
2019-04-16T16:32:21.431Z,27.58
2019-04-16T16:34:58.004Z,25.50
2019-04-16T16:37:36.783Z,26.42
2019-04-16T16:40:15.295Z,27.45
2019-04-16T16:42:50.065Z,25.05
2019-04-16T16:45:39.347Z,26.33
2019-04-16T16:48:16.201Z,23.77
2019-04-16T16:50:53.459Z,27.10
2019-04-16T16:53:57.731Z,29.23
2019-04-16T16:56:44.434Z,23.92
2019-04-16T16:59:33.877Z,27.40
2019-04-16T17:02:20.335Z,30.00
2019-04-16T17:04:57.737Z,26.60
2019-04-16T17:07:35.240Z,30.00
2019-04-16T17:10:11.741Z,25.20
2019-04-16T17:12:47.801Z,25.97
2019-04-16T17:15:24.212Z,24.05
2019-04-16T17:18:01.414Z,30.72
2019-04-16T17:20:40.922Z,30.27
2019-04-16T17:23:16.701Z,27.17
2019-04-16T17:25:57.239Z,28.65
2019-04-16T17:28:31.854Z,29.42
2019-04-16T17:31:08.708Z,30.02
2019-04-16T17:33:45.390Z,27.13
2019-04-16T17:36:21.960Z,27.45
2019-04-16T17:38:58.579Z,23.15
2019-04-16T17:41:40.459Z,26.42
2019-04-16T17:44:41.512Z,30.30
2019-04-16T17:47:32.214Z,28.45
2019-04-16T17:50:08.361Z,25.52
2019-04-16T17:53:09.122Z,30.65
2019-04-16T17:56:10.267Z,31.93
2019-04-16T17:58:56.886Z,25.72
2019-04-16T18:01:51.479Z,29.27
2019-04-16T18:04:54.804Z,27.20
2019-04-16T18:07:52.548Z,29.95
2019-04-16T18:10:47.334Z,28.10
2019-04-16T18:13:42.444Z,29.32
2019-04-16T18:16:35.526Z,33.75
2019-04-16T18:19:36.156Z,28.60
2019-04-16T18:22:22.286Z,28.27
2019-04-16T18:25:15.496Z,31.45
2019-04-16T18:27:55.497Z,31.15
2019-04-16T18:30:38.899Z,24.70
2019-04-16T18:33:36.863Z,30.02
2019-04-16T18:36:18.947Z,27.52
2019-04-16T18:39:11.810Z,36.23
2019-04-16T18:41:56.541Z,33.53
2019-04-16T18:44:55.034Z,36.75
2019-04-16T18:47:42.802Z,28.77
2019-04-16T18:50:26.011Z,29.77
2019-04-16T18:53:01.028Z,30.23
2019-04-16T18:55:36.919Z,27.52
2019-04-16T18:58:14.428Z,32.53
2019-04-16T19:00:53.924Z,31.00
2019-04-16T19:03:30.224Z,37.78
2019-04-16T19:06:07.142Z,34.65
2019-04-16T19:08:43.911Z,39.58
2019-04-16T19:11:20.794Z,30.72
2019-04-16T19:13:57.437Z,46.40
2019-04-16T19:16:33.802Z,33.63
2019-04-16T19:19:10.545Z,38.25
2019-04-16T19:21:51.302Z,42.45
2019-04-16T19:24:25.084Z,36.75
2019-04-16T19:27:01.217Z,44.40
2019-04-16T19:29:37.972Z,48.40
2019-04-16T19:32:14.351Z,42.43
2019-04-16T19:34:50.760Z,45.05
2019-04-16T19:37:29.633Z,43.17
2019-04-16T19:40:04.528Z,40.20
2019-04-16T19:42:41.257Z,45.15
2019-04-16T19:45:17.339Z,49.18
2019-04-16T19:47:53.846Z,43.75
2019-04-16T19:50:36.125Z,42.20
2019-04-16T19:53:07.702Z,46.30
2019-04-16T19:55:45.973Z,50.05
2019-04-16T19:58:21.590Z,49.58
2019-04-16T20:00:59.035Z,54.95
2019-04-16T20:03:35.842Z,44.40
2019-04-16T20:06:12.979Z,45.80
2019-04-16T20:08:49.358Z,49.83
2019-04-16T20:11:25.913Z,41.95
2019-04-16T20:14:03.406Z,52.13
2019-04-16T20:16:39.360Z,44.53
2019-04-16T20:19:15.545Z,44.70
2019-04-16T20:21:51.476Z,57.85
2019-04-16T20:24:27.574Z,51.30
2019-04-16T20:27:06.466Z,51.53
2019-04-16T20:29:41.975Z,49.83
2019-04-16T20:32:18.293Z,46.92
2019-04-16T20:34:54.257Z,45.40
2019-04-16T20:37:30.521Z,45.92
2019-04-16T20:40:06.824Z,50.03
2019-04-16T20:42:42.688Z,52.70
2019-04-16T20:45:19.093Z,53.45
2019-04-16T20:47:55.414Z,48.58
2019-04-16T20:50:31.767Z,49.30
2019-04-16T20:53:08.498Z,52.53
2019-04-16T20:55:47.463Z,49.45
2019-04-16T20:58:22.474Z,48.87
2019-04-16T21:00:59.141Z,48.23
2019-04-16T21:03:35.119Z,52.55
2019-04-16T21:06:10.858Z,49.60
2019-04-16T21:08:47.572Z,52.48
2019-04-16T21:11:23.837Z,50.30
2019-04-16T21:13:59.763Z,46.50
2019-04-16T21:16:36.324Z,49.73
2019-04-16T21:19:22.779Z,45.45
2019-04-16T21:21:55.091Z,44.10
2019-04-16T21:24:28.070Z,43.80
2019-04-16T21:27:04.401Z,44.18
2019-04-16T21:29:41.246Z,47.50
2019-04-16T21:32:36.118Z,42.62
2019-04-16T21:35:18.818Z,44.65
2019-04-16T21:38:21.855Z,45.33
2019-04-16T21:40:58.450Z,52.78
2019-04-16T21:43:35.756Z,57.53
2019-04-16T21:46:12.459Z,56.60
2019-04-16T21:48:49.071Z,54.95
2019-04-16T21:51:25.820Z,53.65
2019-04-16T21:54:01.891Z,39.90
2019-04-16T21:56:39.665Z,46.02
2019-04-16T21:59:15.248Z,49.33
2019-04-16T22:01:51.660Z,55.83
2019-04-16T22:04:27.909Z,51.88
2019-04-16T22:07:07.436Z,45.63
2019-04-16T22:09:42.414Z,41.13
2019-04-16T22:12:18.884Z,50.55
2019-04-16T22:14:55.939Z,47.75
2019-04-16T22:17:35.493Z,43.30
2019-04-16T22:20:10.853Z,41.45
2019-04-16T22:22:47.663Z,44.70
2019-04-16T22:25:26.525Z,43.83
2019-04-16T22:28:01.781Z,49.15
2019-04-16T22:30:39.098Z,54.75
2019-04-16T22:33:15.240Z,39.85
2019-04-16T22:35:55.659Z,45.20
2019-04-16T22:38:34.050Z,43.10
2019-04-16T22:41:18.084Z,45.95
2019-04-16T22:44:05.474Z,49.83
2019-04-16T22:46:45.957Z,45.48
2019-04-16T22:49:23.285Z,42.98
2019-04-16T22:52:01.757Z,49.63
2019-04-16T22:54:38.987Z,45.17
2019-04-16T22:57:16.756Z,46.80
2019-04-16T22:59:59.966Z,48.65
2019-04-16T23:02:36.622Z,52.05
2019-04-16T23:05:13.332Z,45.30
2019-04-16T23:07:49.477Z,53.60
2019-04-16T23:10:26.132Z,54.90
2019-04-16T23:13:02.932Z,52.75
2019-04-16T23:15:39.543Z,51.73
2019-04-16T23:18:17.501Z,51.58
2019-04-16T23:20:54.923Z,47.27
2019-04-16T23:23:32.169Z,54.65
2019-04-16T23:26:08.818Z,47.73
2019-04-16T23:28:45.508Z,48.25
2019-04-16T23:31:22.695Z,47.03
2019-04-16T23:34:04.726Z,50.43
2019-04-16T23:36:37.062Z,54.23
2019-04-16T23:39:13.931Z,53.02
2019-04-16T23:41:50.411Z,51.42
2019-04-16T23:44:37.277Z,51.48
2019-04-16T23:47:42.056Z,58.38
2019-04-16T23:50:49.405Z,59.00
2019-04-16T23:54:02.550Z,58.75
2019-04-16T23:56:49.775Z,52.98
2019-04-16T23:59:51.421Z,52.70
